createdAt,value
2023-04-04T04:34:37.753Z,7.90
2023-04-04T04:37:06.296Z,8.40
2023-04-04T04:39:55.658Z,8.70
2023-04-04T04:42:46.462Z,6.80
2023-04-04T04:45:17.123Z,6.00
2023-04-04T04:47:49.522Z,5.20
2023-04-04T04:50:19.248Z,5.50
2023-04-04T04:52:53.036Z,4.70
2023-04-04T04:55:21.320Z,3.70
2023-04-04T04:57:58.633Z,3.90
2023-04-04T05:00:28.963Z,3.90
2023-04-04T05:02:57.174Z,4.20
2023-04-04T05:05:35.111Z,4.70
2023-04-04T05:08:06.010Z,4.40
2023-04-04T05:10:35.649Z,4.60
2023-04-04T05:13:04.127Z,5.30
2023-04-04T05:15:37.123Z,4.20
2023-04-04T05:18:05.801Z,4.50
2023-04-04T05:20:35.552Z,4.80
2023-04-04T05:23:04.842Z,4.40
2023-04-04T05:25:39.654Z,4.40
2023-04-04T05:28:08.412Z,4.40
2023-04-04T05:30:37.502Z,4.20
2023-04-04T05:33:31.927Z,3.60
2023-04-04T05:36:13.030Z,4.10
2023-04-04T05:38:47.129Z,2.90
2023-04-04T05:41:16.349Z,3.50
2023-04-04T05:43:44.877Z,3.20
2023-04-04T05:48:50.884Z,2.60
2023-04-04T05:51:19.602Z,3.10
2023-04-04T05:54:07.546Z,2.60
2023-04-04T05:56:36.041Z,2.80
2023-04-04T05:59:05.993Z,2.90
2023-04-04T06:01:37.017Z,3.10
2023-04-04T06:04:11.597Z,2.50
2023-04-04T06:06:41.340Z,2.50
2023-04-04T06:09:10.051Z,3.00
2023-04-04T06:11:38.502Z,2.90
2023-04-04T06:14:10.074Z,2.50
2023-04-04T06:16:38.362Z,1.90
2023-04-04T06:19:06.413Z,2.40
2023-04-04T06:21:34.315Z,2.80
2023-04-04T06:24:02.702Z,2.70
2023-04-04T06:26:30.898Z,2.50
2023-04-04T06:29:01.197Z,2.60
2023-04-04T06:31:32.645Z,2.40
2023-04-04T06:34:07.146Z,2.90
2023-04-04T06:36:42.023Z,3.00
2023-04-04T06:39:10.054Z,2.70
2023-04-04T06:41:38.561Z,2.80
2023-04-04T06:44:06.800Z,2.70
2023-04-04T06:46:37.662Z,2.50
2023-04-04T06:49:06.410Z,2.40
2023-04-04T06:51:34.978Z,2.40
2023-04-04T06:54:19.032Z,2.70
2023-04-04T06:56:49.950Z,2.90
2023-04-04T06:59:18.517Z,2.70
2023-04-04T07:01:46.569Z,3.00
2023-04-04T07:04:15.018Z,2.30
2023-04-04T07:06:44.054Z,2.60
2023-04-04T07:09:25.950Z,3.00
2023-04-04T07:11:57.045Z,3.00
2023-04-04T07:14:26.102Z,2.60
2023-04-04T07:16:55.342Z,2.60
2023-04-04T07:19:24.708Z,2.30
2023-04-04T07:21:53.735Z,2.50
2023-04-04T07:24:21.844Z,2.20
2023-04-04T07:26:49.852Z,2.60
2023-04-04T07:29:18.491Z,2.80
2023-04-04T07:31:46.600Z,2.80
2023-04-04T07:34:15.038Z,2.60
2023-04-04T07:36:43.482Z,2.50
2023-04-04T07:39:11.643Z,2.30
2023-04-04T07:41:39.875Z,2.50
2023-04-04T07:44:08.133Z,2.20
2023-04-04T07:46:36.299Z,2.40
2023-04-04T07:49:04.337Z,2.70
2023-04-04T07:51:32.880Z,2.50
2023-04-04T07:54:02.432Z,2.50
2023-04-04T07:56:30.598Z,2.20
2023-04-04T07:58:58.587Z,2.50
2023-04-04T08:01:27.128Z,2.50
2023-04-04T08:03:55.280Z,2.80
2023-04-04T08:06:23.775Z,2.70
2023-04-04T08:08:52.415Z,2.30
2023-04-04T08:11:20.440Z,2.50
2023-04-04T08:13:48.960Z,2.70
2023-04-04T08:16:17.748Z,2.20
2023-04-04T08:18:45.821Z,2.20
2023-04-04T08:21:13.967Z,2.50
2023-04-04T08:23:41.920Z,2.30
2023-04-04T08:26:10.066Z,2.50
2023-04-04T08:28:38.805Z,2.40
2023-04-04T08:31:06.865Z,2.10
2023-04-04T08:33:46.647Z,2.30
2023-04-04T08:36:16.379Z,2.80
2023-04-04T08:38:44.694Z,2.40
2023-04-04T08:41:13.478Z,2.60
2023-04-04T08:43:46.561Z,2.40
2023-04-04T08:46:15.926Z,2.60
2023-04-04T08:48:45.021Z,2.40
2023-04-04T08:51:14.905Z,2.40
2023-04-04T08:53:43.015Z,2.60
2023-04-04T08:56:11.237Z,2.20
2023-04-04T08:58:39.599Z,2.40
2023-04-04T09:01:08.288Z,3.50
2023-04-04T09:03:38.177Z,2.60
2023-04-04T09:06:07.352Z,1.60
2023-04-04T09:08:35.573Z,2.60
2023-04-04T09:11:04.547Z,2.40
2023-04-04T09:13:32.665Z,2.50
2023-04-04T09:16:01.330Z,1.90
2023-04-04T09:18:30.077Z,2.70
2023-04-04T09:20:58.170Z,1.50
2023-04-04T09:23:26.175Z,2.30
2023-04-04T09:26:04.113Z,1.60
2023-04-04T09:28:33.793Z,1.50
2023-04-04T09:31:06.994Z,2.10
2023-04-04T09:33:35.475Z,2.00
2023-04-04T09:36:13.453Z,2.20
2023-04-04T09:38:45.880Z,2.00
2023-04-04T09:41:16.190Z,2.20
2023-04-04T09:43:45.647Z,1.30
2023-04-04T09:46:13.733Z,1.40
2023-04-04T09:48:50.552Z,2.00
2023-04-04T09:51:19.084Z,1.70
2023-04-04T09:53:51.982Z,1.80
2023-04-04T09:56:20.276Z,1.50
2023-04-04T09:59:02.392Z,1.90
2023-04-04T10:01:31.584Z,1.20
2023-04-04T10:04:00.033Z,1.20
2023-04-04T10:06:28.681Z,1.40
2023-04-04T10:08:58.490Z,1.20
2023-04-04T10:11:31.829Z,1.70
2023-04-04T10:14:02.792Z,1.50
2023-04-04T10:16:37.168Z,1.70
2023-04-04T10:19:08.085Z,1.40
2023-04-04T10:21:36.837Z,1.40
2023-04-04T10:24:10.015Z,1.60
2023-04-04T10:26:38.614Z,1.80
2023-04-04T10:29:06.910Z,1.40
2023-04-04T10:31:41.158Z,1.40
2023-04-04T10:34:28.521Z,2.00
2023-04-04T10:37:24.844Z,1.40
2023-04-04T10:40:08.072Z,1.80
2023-04-04T10:42:40.709Z,1.60
2023-04-04T10:45:20.525Z,1.90
2023-04-04T10:47:51.726Z,1.50
2023-04-04T10:50:20.987Z,1.80
2023-04-04T10:52:50.569Z,1.30
2023-04-04T10:55:20.016Z,1.90
2023-04-04T10:57:52.578Z,1.60
2023-04-04T11:04:48.072Z,1.50
2023-04-04T11:07:17.672Z,1.90
2023-04-04T11:09:54.104Z,1.50
2023-04-04T11:12:33.698Z,1.70
2023-04-04T11:15:13.062Z,2.10
2023-04-04T11:17:46.019Z,1.80
2023-04-04T11:20:28.505Z,2.00
2023-04-04T11:23:09.028Z,1.50
2023-04-04T11:25:42.148Z,1.20
2023-04-04T11:28:15.371Z,1.20
2023-04-04T11:30:48.508Z,1.30
2023-04-04T11:33:27.615Z,0.90
2023-04-04T11:36:01.284Z,0.90
2023-04-04T11:38:29.880Z,1.10
2023-04-04T11:40:57.951Z,1.20
2023-04-04T11:43:27.035Z,1.10
2023-04-04T11:46:06.912Z,1.30
2023-04-04T11:48:35.067Z,1.40
2023-04-04T11:51:04.064Z,1.40
2023-04-04T11:53:33.313Z,1.50
2023-04-04T11:56:01.822Z,1.30
2023-04-04T11:58:29.980Z,1.60
2023-04-04T12:00:57.909Z,1.20
2023-04-04T12:03:30.088Z,1.10
2023-04-04T12:05:59.493Z,1.50
2023-04-04T12:08:28.225Z,1.20
2023-04-04T12:10:57.768Z,1.60
2023-04-04T12:13:31.445Z,1.40
2023-04-04T12:16:00.811Z,1.90
2023-04-04T12:18:29.823Z,1.70
2023-04-04T12:20:58.030Z,1.40
2023-04-04T12:23:27.675Z,1.50
2023-04-04T12:25:56.996Z,1.80
2023-04-04T12:28:27.299Z,1.40
2023-04-04T12:30:56.821Z,1.20
2023-04-04T12:33:24.840Z,1.20
2023-04-04T12:35:53.730Z,1.60
2023-04-04T12:38:21.912Z,1.30
2023-04-04T12:40:51.776Z,2.00
2023-04-04T12:43:20.856Z,2.00
2023-04-04T12:45:54.948Z,1.90
2023-04-04T12:48:29.029Z,1.60
2023-04-04T12:50:58.637Z,1.40
2023-04-04T12:53:29.534Z,1.80
2023-04-04T12:56:04.700Z,1.70
2023-04-04T12:58:35.843Z,1.50
2023-04-04T13:01:05.747Z,1.50
2023-04-04T13:03:34.756Z,2.10
2023-04-04T13:06:03.107Z,1.70
2023-04-04T13:08:31.772Z,1.60
2023-04-04T13:11:05.253Z,1.70
2023-04-04T13:13:41.061Z,1.80
2023-04-04T13:16:11.829Z,2.10
2023-04-04T13:18:44.302Z,1.60
2023-04-04T13:21:13.784Z,1.80
2023-04-04T13:23:41.892Z,1.60
2023-04-04T13:26:11.183Z,1.50
2023-04-04T13:28:39.337Z,1.30
2023-04-04T13:31:10.059Z,1.80
2023-04-04T13:33:38.152Z,1.90
2023-04-04T13:36:24.179Z,1.40
2023-04-04T13:38:52.218Z,1.40
2023-04-04T13:41:20.701Z,1.30
2023-04-04T13:43:49.272Z,1.30
2023-04-04T13:46:17.878Z,1.70
2023-04-04T13:48:46.361Z,1.30
2023-04-04T13:51:14.477Z,1.80
2023-04-04T13:53:42.469Z,1.70
2023-04-04T13:56:17.921Z,1.70
2023-04-04T13:58:47.244Z,1.30
2023-04-04T14:01:15.498Z,1.70
2023-04-04T14:03:43.876Z,1.90
2023-04-04T14:06:12.547Z,1.80
2023-04-04T14:08:40.527Z,2.10
2023-04-04T14:11:08.663Z,2.10
2023-04-04T14:13:36.902Z,1.80
2023-04-04T14:16:05.295Z,1.80
2023-04-04T14:18:34.632Z,2.20
2023-04-04T14:21:03.656Z,2.10
2023-04-04T14:23:31.945Z,1.90
2023-04-04T14:26:00.702Z,2.20
2023-04-04T14:28:28.962Z,2.20
2023-04-04T14:30:56.906Z,1.80
2023-04-04T14:33:25.180Z,1.90
2023-04-04T14:35:53.274Z,2.10
2023-04-04T14:38:21.366Z,1.70
2023-04-04T14:40:49.595Z,1.30
2023-04-04T14:43:17.651Z,1.90
2023-04-04T14:45:45.918Z,1.70
2023-04-04T14:48:14.278Z,1.50
2023-04-04T14:50:42.941Z,2.60
2023-04-04T14:53:11.118Z,2.30
2023-04-04T14:55:39.549Z,2.40
2023-04-04T14:58:08.722Z,2.20
2023-04-04T15:00:36.760Z,2.40
2023-04-04T15:03:07.374Z,2.40
2023-04-04T15:05:35.661Z,2.70
2023-04-04T15:08:04.085Z,1.90
2023-04-04T15:10:32.128Z,2.00
2023-04-04T15:13:00.252Z,2.10
2023-04-04T15:15:29.191Z,2.10
2023-04-04T15:17:57.992Z,2.60
2023-04-04T15:20:27.180Z,2.80
2023-04-04T15:22:56.363Z,2.20
2023-04-04T15:25:24.540Z,2.80
2023-04-04T15:27:52.975Z,3.20
2023-04-04T15:30:21.295Z,3.70
2023-04-04T15:32:50.469Z,2.90
2023-04-04T15:35:22.105Z,2.30
2023-04-04T15:37:51.521Z,2.40
2023-04-04T15:40:19.984Z,3.20
2023-04-04T15:42:48.473Z,3.00
2023-04-04T15:45:16.684Z,2.10
2023-04-04T15:47:45.359Z,2.10
2023-04-04T15:50:13.546Z,2.30
2023-04-04T15:52:41.937Z,2.20
2023-04-04T15:55:17.114Z,2.10
2023-04-04T15:57:46.028Z,2.20
2023-04-04T16:00:14.611Z,2.30
2023-04-04T16:02:43.102Z,2.50
2023-04-04T16:05:21.102Z,2.50
2023-04-04T16:07:50.030Z,2.80
2023-04-04T16:10:18.569Z,2.30
2023-04-04T16:12:46.565Z,2.30
2023-04-04T16:15:14.705Z,2.30
2023-04-04T16:17:42.781Z,2.10
2023-04-04T16:20:12.098Z,2.00
2023-04-04T16:22:40.054Z,2.40
2023-04-04T16:25:08.992Z,2.40
2023-04-04T16:27:37.406Z,2.40
2023-04-04T16:30:06.320Z,3.40
2023-04-04T16:32:34.590Z,3.70
2023-04-04T16:35:02.906Z,2.10
2023-04-04T16:37:30.979Z,2.30
2023-04-04T16:40:01.518Z,2.00
2023-04-04T16:42:30.068Z,2.00
2023-04-04T16:44:58.320Z,2.10
2023-04-04T16:47:28.031Z,2.30
2023-04-04T16:49:56.464Z,3.90
2023-04-04T16:52:24.708Z,3.00
2023-04-04T16:54:54.451Z,3.20
2023-04-04T16:57:23.104Z,4.40
2023-04-04T16:59:51.882Z,4.00
2023-04-04T17:02:20.294Z,3.40
2023-04-04T17:04:51.212Z,3.20
2023-04-04T17:07:20.946Z,3.40
2023-04-04T17:09:50.714Z,3.20
2023-04-04T17:12:20.315Z,2.90
2023-04-04T17:14:48.206Z,2.50
2023-04-04T17:17:17.457Z,3.30
2023-04-04T17:19:45.882Z,2.50
2023-04-04T17:22:14.117Z,2.20
2023-04-04T17:24:42.516Z,2.30
2023-04-04T17:27:10.875Z,2.10
2023-04-04T17:29:39.258Z,2.50
2023-04-04T17:32:07.814Z,2.40
2023-04-04T17:34:35.811Z,2.30
2023-04-04T17:37:04.199Z,2.70
2023-04-04T17:39:32.805Z,3.40
2023-04-04T17:42:03.395Z,3.00
2023-04-04T17:44:31.981Z,3.30
2023-04-04T17:47:00.521Z,3.30
2023-04-04T17:49:29.506Z,3.90
2023-04-04T17:51:58.255Z,3.80
2023-04-04T17:54:29.615Z,3.00
2023-04-04T17:56:57.753Z,3.40
2023-04-04T17:59:25.797Z,4.20
2023-04-04T18:01:54.097Z,3.50
2023-04-04T18:04:23.979Z,4.00
2023-04-04T18:06:52.450Z,3.90
2023-04-04T18:09:20.967Z,4.90
2023-04-04T18:11:50.721Z,5.90
2023-04-04T18:14:19.457Z,4.60
2023-04-04T18:16:47.616Z,4.80
2023-04-04T18:19:15.744Z,6.60
2023-04-04T18:21:48.738Z,6.20
2023-04-04T18:24:17.537Z,5.70
2023-04-04T18:26:46.048Z,6.10
2023-04-04T18:29:14.981Z,8.60
2023-04-04T18:31:43.162Z,9.50
2023-04-04T18:34:15.214Z,9.00
2023-04-04T18:36:43.901Z,10.50
2023-04-04T18:39:12.449Z,11.80
2023-04-04T18:41:40.697Z,9.60
2023-04-04T18:44:09.194Z,8.60
2023-04-04T18:46:39.325Z,9.20
2023-04-04T18:49:07.983Z,9.20
2023-04-04T18:51:36.892Z,9.70
2023-04-04T18:54:05.332Z,8.80
2023-04-04T18:56:33.327Z,9.80
2023-04-04T18:59:02.268Z,8.70
2023-04-04T19:04:40.281Z,8.40
2023-04-04T19:07:11.008Z,9.20
2023-04-04T19:09:41.127Z,9.90
2023-04-04T19:12:09.721Z,9.60
2023-04-04T19:14:37.983Z,11.00
2023-04-04T19:17:06.058Z,11.70
2023-04-04T19:19:34.545Z,10.90
2023-04-04T19:22:03.752Z,10.20
2023-04-04T19:24:33.348Z,10.00
2023-04-04T19:27:03.122Z,9.80
2023-04-04T19:29:32.172Z,9.30
2023-04-04T19:32:05.671Z,9.30
2023-04-04T19:34:34.337Z,10.20
2023-04-04T19:37:02.668Z,10.30
2023-04-04T19:39:33.668Z,10.20
2023-04-04T19:42:02.160Z,10.30
2023-04-04T19:44:31.441Z,10.00
2023-04-04T19:47:01.094Z,11.20
2023-04-04T19:49:30.662Z,14.30
2023-04-04T19:52:01.185Z,14.70
2023-04-04T19:54:34.423Z,14.90
2023-04-04T19:57:09.009Z,16.00
2023-04-04T20:00:02.060Z,16.50
2023-04-04T20:02:36.691Z,16.00
2023-04-04T20:05:53.789Z,14.00
2023-04-04T20:08:21.870Z,14.30
2023-04-04T20:10:53.547Z,14.10
2023-04-04T20:13:21.514Z,14.50
2023-04-04T20:15:50.055Z,14.00
2023-04-04T20:18:25.519Z,15.40
2023-04-04T20:21:00.372Z,16.20
2023-04-04T20:23:31.440Z,16.00
2023-04-04T20:26:08.796Z,19.70
2023-04-04T20:28:37.172Z,21.00
2023-04-04T20:31:12.220Z,20.10
2023-04-04T20:33:40.853Z,21.30
2023-04-04T20:36:30.212Z,18.80
2023-04-04T20:38:59.297Z,18.20
2023-04-04T20:41:27.473Z,17.30
2023-04-04T20:43:57.587Z,17.60
2023-04-04T20:46:27.591Z,17.10
2023-04-04T20:48:58.324Z,17.50
2023-04-04T20:51:31.185Z,17.00
2023-04-04T20:54:02.458Z,19.00
2023-04-04T20:56:40.596Z,17.70
2023-04-04T20:59:31.537Z,18.00
2023-04-04T21:02:16.641Z,18.40
2023-04-04T21:04:46.207Z,16.90
2023-04-04T21:07:36.517Z,17.10
2023-04-04T21:10:21.667Z,18.00
2023-04-04T21:12:51.456Z,18.90
2023-04-04T21:15:28.615Z,18.60
2023-04-04T21:18:00.852Z,18.00
2023-04-04T21:20:47.205Z,18.80
2023-04-04T21:23:27.636Z,19.00
2023-04-04T21:25:57.965Z,19.70
2023-04-04T21:28:31.298Z,19.80
2023-04-04T21:31:00.677Z,20.60
2023-04-04T21:33:28.790Z,21.20
2023-04-04T21:35:56.768Z,21.70
2023-04-04T21:38:35.336Z,19.90
2023-04-04T21:41:30.696Z,19.00
2023-04-04T21:44:07.254Z,19.10
2023-04-04T21:46:38.041Z,19.60
2023-04-04T21:49:07.932Z,21.10
2023-04-04T21:51:36.887Z,20.80
2023-04-04T21:54:05.592Z,19.90
2023-04-04T21:56:33.924Z,21.50
2023-04-04T21:59:04.486Z,23.10
2023-04-04T22:01:32.806Z,22.00
2023-04-04T22:04:02.232Z,23.00
2023-04-04T22:06:31.112Z,25.50
2023-04-04T22:09:01.929Z,25.50
2023-04-04T22:11:30.401Z,30.90
2023-04-04T22:14:04.905Z,25.20
2023-04-04T22:16:39.653Z,28.70
2023-04-04T22:19:11.719Z,28.70
2023-04-04T22:21:48.216Z,24.60
2023-04-04T22:24:18.482Z,21.60
2023-04-04T22:26:47.021Z,24.30
2023-04-04T22:29:15.020Z,25.80
2023-04-04T22:31:43.441Z,23.10
2023-04-04T22:34:14.691Z,24.20
2023-04-04T22:36:43.843Z,24.40
2023-04-04T22:39:16.351Z,23.50
2023-04-04T22:41:44.534Z,22.40
2023-04-04T22:44:13.265Z,22.70
2023-04-04T22:46:41.729Z,24.10
2023-04-04T22:49:10.055Z,24.40
2023-04-04T22:51:45.661Z,24.70
2023-04-04T22:54:15.419Z,25.60
2023-04-04T22:56:43.696Z,25.50
2023-04-04T22:59:12.398Z,27.20
2023-04-04T23:01:40.551Z,26.80
2023-04-04T23:04:08.771Z,27.60
2023-04-04T23:06:38.583Z,25.60
2023-04-04T23:09:08.177Z,25.70
2023-04-04T23:11:38.147Z,25.10
2023-04-04T23:14:08.589Z,25.70
2023-04-04T23:16:37.417Z,25.70
2023-04-04T23:19:05.692Z,24.20
2023-04-04T23:21:34.396Z,24.30
2023-04-04T23:24:07.208Z,23.50
2023-04-04T23:26:35.751Z,23.50
2023-04-04T23:29:03.992Z,23.00
2023-04-04T23:31:32.051Z,21.70
2023-04-04T23:34:00.818Z,22.00
2023-04-04T23:36:29.779Z,25.20
2023-04-04T23:38:57.735Z,24.20
2023-04-04T23:41:26.700Z,25.30
2023-04-04T23:43:54.958Z,25.90
2023-04-04T23:46:24.002Z,24.40
2023-04-04T23:48:52.111Z,24.20
2023-04-04T23:51:21.705Z,24.50
2023-04-04T23:53:49.926Z,24.40
2023-04-04T23:56:18.326Z,24.00
2023-04-04T23:58:46.416Z,25.10
